Time;durP1;ratioP1;P1;durP2;ratioP2;P2;SDS_P1;SDS_P2;PMS_P1;PMS_P2;Temp;Humidity;BMP_temperature;BMP_pressure;BME280_temperature;BME280_humidity;BME280_pressure;Samples;Min_cycle;Max_cycle;Signal;HPM_P1;HPM_P2
2023/07/28 00:04:10;;;;;;;14.20;5.30;;;;;;;18.16;69.04;99414.59;679105;1266;139620;-78
2023/07/28 00:19:13;;;;;;;10.40;5.40;;;;;;;18.13;68.83;99398.77;678116;1273;140084;-79
2023/07/28 00:34:17;;;;;;;16.30;7.80;;;;;;;18.30;69.05;99378.22;678408;1266;138882;-78
2023/07/28 00:49:21;;;;;;;13.90;5.50;;;;;;;18.26;70.43;99365.57;678965;1265;139258;-78
2023/07/28 01:04:24;;;;;;;6.40;3.70;;;;;;;18.33;69.87;99333.65;678657;1261;140197;-78
2023/07/28 01:19:28;;;;;;;11.00;3.10;;;;;;;18.42;69.62;99324.23;679544;1263;138902;-78
2023/07/28 01:34:31;;;;;;;13.90;4.40;;;;;;;18.48;69.15;99322.95;678838;1261;139934;-78
2023/07/28 01:49:34;;;;;;;9.20;4.10;;;;;;;18.32;70.24;99321.77;678994;1261;140076;-79
2023/07/28 02:04:38;;;;;;;10.20;5.50;;;;;;;18.38;69.86;99307.41;678206;1267;139084;-79
2023/07/28 02:19:42;;;;;;;12.40;4.60;;;;;;;18.51;70.91;99304.22;676866;1265;138960;-78
2023/07/28 02:34:45;;;;;;;12.60;6.30;;;;;;;18.76;69.47;99296.58;679814;1260;139950;-77
2023/07/28 02:49:48;;;;;;;6.60;3.90;;;;;;;18.89;68.71;99277.95;681257;1264;138799;-79
2023/07/28 03:04:52;;;;;;;8.70;5.10;;;;;;;18.92;68.02;99267.80;675419;1265;139191;-78
2023/07/28 03:19:59;;;;;;;8.80;3.70;;;;;;;18.81;68.71;99261.25;679422;1261;138297;-78
2023/07/28 03:35:05;;;;;;;10.40;4.40;;;;;;;18.93;68.08;99248.34;678374;1265;139093;-78
2023/07/28 03:50:11;;;;;;;8.60;4.40;;;;;;;19.07;68.05;99243.80;680597;1260;138824;-78
2023/07/28 04:05:14;;;;;;;7.30;4.20;;;;;;;19.30;68.23;99238.79;680774;1264;139668;-79
2023/07/28 04:20:17;;;;;;;5.30;3.50;;;;;;;19.60;68.43;99235.44;680093;1261;139791;-79
2023/07/28 04:35:21;;;;;;;8.80;4.20;;;;;;;19.78;69.29;99233.02;680026;1265;138988;-78
2023/07/28 04:50:37;;;;;;;12.20;4.60;;;;;;;20.05;69.24;99225.08;680805;1264;139754;-78
2023/07/28 05:05:53;;;;;;;11.60;4.90;;;;;;;19.93;70.88;99218.77;680804;1264;139301;-78
2023/07/28 05:20:56;;;;;;;8.30;4.50;;;;;;;20.25;70.68;99218.85;678670;1261;140194;-78
2023/07/28 05:36:04;;;;;;;6.30;3.60;;;;;;;20.29;71.63;99210.31;680040;1263;139858;-78
2023/07/28 05:51:09;;;;;;;9.70;4.60;;;;;;;20.39;75.84;99204.08;679532;1259;139047;-78
2023/07/28 06:06:14;;;;;;;7.60;5.10;;;;;;;19.89;83.42;99210.05;677242;1259;139343;-78
2023/07/28 06:21:17;;;;;;;7.40;4.70;;;;;;;19.57;89.94;99214.45;678560;1261;138637;-78
2023/07/28 06:36:21;;;;;;;7.00;4.80;;;;;;;19.57;90.12;99209.65;679503;1261;138780;-78
2023/07/28 06:51:25;;;;;;;65.70;44.40;;;;;;;19.55;90.48;99205.67;681406;1263;138960;-78
2023/07/28 07:06:28;;;;;;;11.40;7.30;;;;;;;19.40;94.92;99201.38;678054;1259;151748;-78
2023/07/28 07:21:31;;;;;;;24.80;18.40;;;;;;;18.79;99.52;99198.80;680485;1259;139988;-78
2023/07/28 07:36:35;;;;;;;12.00;8.70;;;;;;;18.64;100.00;99196.36;679920;1263;140592;-79
2023/07/28 07:51:38;;;;;;;145.60;64.00;;;;;;;18.61;100.00;99185.97;677622;1267;140248;-79
2023/07/28 08:06:42;;;;;;;50.40;21.70;;;;;;;18.96;100.00;99191.58;680722;1262;141159;-79
2023/07/28 08:21:45;;;;;;;11.90;8.80;;;;;;;19.07;100.00;99195.43;680309;1264;139530;-79
2023/07/28 08:36:49;;;;;;;127.30;36.10;;;;;;;18.87;100.00;99189.19;680081;1264;139469;-80
2023/07/28 08:51:58;;;;;;;137.30;46.50;;;;;;;18.70;100.00;99181.31;680101;1260;140181;-78
2023/07/28 09:07:04;;;;;;;23.60;15.30;;;;;;;18.63;100.00;99179.17;677358;1259;139975;-77
2023/07/28 09:22:07;;;;;;;32.10;19.40;;;;;;;18.95;100.00;99183.90;677976;1263;140697;-75
2023/07/28 09:37:12;;;;;;;13.90;7.50;;;;;;;18.85;100.00;99185.52;681359;1263;141209;-75
2023/07/28 09:52:18;;;;;;;9.90;8.10;;;;;;;19.34;100.00;99156.70;681259;1263;140909;-74
2023/07/28 10:07:21;;;;;;;7.30;6.60;;;;;;;19.92;100.00;99156.67;681491;1260;139287;-75
2023/07/28 10:22:26;;;;;;;7.30;6.00;;;;;;;20.41;100.00;99149.11;676730;1278;140048;-75
2023/07/28 10:37:30;;;;;;;7.50;4.60;;;;;;;20.68;100.00;99140.86;679811;1266;139743;-76
2023/07/28 10:52:34;;;;;;;10.20;5.10;;;;;;;20.51;100.00;99146.73;680934;1264;139620;-76
2023/07/28 11:07:37;;;;;;;4.10;3.70;;;;;;;21.32;100.00;99149.00;678049;1264;140061;-77
2023/07/28 11:22:40;;;;;;;3.80;3.40;;;;;;;21.94;100.00;99141.91;680553;1263;140262;-77
2023/07/28 11:37:47;;;;;;;5.10;4.20;;;;;;;21.80;100.00;99138.34;681694;1263;139370;-77
2023/07/28 11:52:50;;;;;;;5.00;4.20;;;;;;;21.72;100.00;99134.39;679381;1265;139754;-78
2023/07/28 12:07:54;;;;;;;12.70;7.90;;;;;;;21.24;100.00;99138.70;679521;1263;139451;-79
2023/07/28 12:22:58;;;;;;;5.40;4.70;;;;;;;21.93;100.00;99143.27;680111;1259;141439;-76
2023/07/28 12:38:05;;;;;;;14.20;8.90;;;;;;;22.14;100.00;99143.70;681878;1266;139968;-78
2023/07/28 12:53:14;;;;;;;6.90;4.10;;;;;;;23.36;99.94;99146.47;679128;1259;140078;-79
2023/07/28 13:08:22;;;;;;;9.90;7.60;;;;;;;24.00;98.59;99142.46;680900;1272;139578;-75
2023/07/28 13:23:28;;;;;;;5.30;4.50;;;;;;;23.58;96.81;99144.68;681521;1264;140855;-76
2023/07/28 13:38:31;;;;;;;11.30;7.90;;;;;;;22.98;99.60;99148.98;681780;1266;141621;-75
2023/07/28 13:53:34;;;;;;;6.70;5.30;;;;;;;23.33;99.86;99153.52;680798;1264;141781;-75
2023/07/28 14:08:40;;;;;;;52.70;36.90;;;;;;;23.30;100.00;99161.77;681058;1265;140719;-75
2023/07/28 14:23:44;;;;;;;39.40;27.60;;;;;;;23.48;100.00;99174.84;681233;1265;139679;-76
2023/07/28 14:38:47;;;;;;;6.90;6.20;;;;;;;24.08;99.85;99175.73;681249;1264;140115;-75
2023/07/28 14:53:51;;;;;;;3.80;3.40;;;;;;;24.85;97.20;99180.10;681089;1263;141132;-76
2023/07/28 15:08:54;;;;;;;11.50;3.40;;;;;;;24.82;96.70;99196.81;679915;1266;140402;-78
2023/07/28 15:23:58;;;;;;;4.30;3.90;;;;;;;24.63;96.15;99204.24;681573;1265;139771;-76
2023/07/28 15:39:02;;;;;;;6.20;4.30;;;;;;;24.55;95.55;99209.42;681554;1264;139220;-74
2023/07/28 15:54:05;;;;;;;6.90;4.80;;;;;;;24.06;95.13;99230.23;679845;1264;139111;-75
2023/07/28 16:09:09;;;;;;;7.90;6.20;;;;;;;24.07;94.20;99249.19;680581;1265;139092;-76
2023/07/28 16:24:18;;;;;;;12.40;9.30;;;;;;;23.98;94.31;99261.08;681582;1263;139895;-76
2023/07/28 16:39:21;;;;;;;9.70;6.90;;;;;;;24.17;93.42;99271.71;681056;1263;140738;-75
2023/07/28 16:54:27;;;;;;;9.00;6.80;;;;;;;24.77;90.35;99270.98;681282;1264;139144;-75
2023/07/28 17:09:30;;;;;;;7.80;6.60;;;;;;;24.39;88.20;99294.36;680137;1263;140934;-77
2023/07/28 17:24:34;;;;;;;5.30;4.70;;;;;;;23.87;88.86;99304.32;681442;1263;141271;-75
2023/07/28 17:39:37;;;;;;;11.10;6.30;;;;;;;23.94;88.51;99315.67;680667;1263;140503;-76
2023/07/28 17:54:41;;;;;;;6.90;5.40;;;;;;;23.34;89.55;99330.85;681742;1263;140553;-76
2023/07/28 18:09:45;;;;;;;12.90;9.30;;;;;;;23.12;89.84;99335.39;680774;1260;139408;-76
2023/07/28 18:24:48;;;;;;;20.60;16.50;;;;;;;22.53;92.17;99346.69;681840;1263;141104;-76
2023/07/28 18:39:52;;;;;;;40.60;22.60;;;;;;;22.19;92.69;99356.92;681749;1260;141146;-76
2023/07/28 18:54:55;;;;;;;24.80;15.30;;;;;;;21.51;95.21;99383.48;680477;1264;140923;-76
2023/07/28 19:09:59;;;;;;;16.20;12.10;;;;;;;21.38;94.66;99398.57;681363;1261;171320;-75
2023/07/28 19:25:05;;;;;;;11.50;8.60;;;;;;;20.43;98.10;99423.73;681128;1260;141191;-77
2023/07/28 19:40:11;;;;;;;20.20;11.70;;;;;;;19.73;99.41;99430.52;680254;1263;139615;-76
2023/07/28 19:55:17;;;;;;;16.70;10.20;;;;;;;19.50;100.00;99435.94;681863;1263;139661;-76
2023/07/28 20:10:25;;;;;;;15.10;10.60;;;;;;;19.31;100.00;99452.63;681595;1263;141233;-76
2023/07/28 20:25:37;;;;;;;15.60;10.40;;;;;;;19.14;99.94;99466.61;681699;1262;139557;-78
2023/07/28 20:40:42;;;;;;;12.30;9.40;;;;;;;18.86;100.00;99482.96;680362;1259;141043;-76
2023/07/28 20:55:50;;;;;;;12.40;9.70;;;;;;;18.85;100.00;99487.96;681114;1262;139535;-76
2023/07/28 21:10:58;;;;;;;16.70;11.30;;;;;;;18.68;100.00;99507.72;681077;1264;141347;-77
2023/07/28 21:26:05;;;;;;;13.50;9.40;;;;;;;18.41;100.00;99518.73;681090;1262;140201;-77
2023/07/28 21:41:08;;;;;;;11.30;8.90;;;;;;;18.12;100.00;99524.71;681125;1259;140366;-78
2023/07/28 21:56:12;;;;;;;15.10;11.10;;;;;;;17.87;100.00;99547.34;679679;1262;140179;-77
2023/07/28 22:11:15;;;;;;;24.60;15.80;;;;;;;17.72;100.00;99561.17;679682;1262;140079;-77
2023/07/28 22:26:19;;;;;;;14.50;10.80;;;;;;;17.80;100.00;99562.39;681753;1262;141066;-78
2023/07/28 22:41:22;;;;;;;15.80;10.50;;;;;;;17.69;100.00;99571.66;677459;1262;140745;-76
2023/07/28 22:56:26;;;;;;;15.20;9.70;;;;;;;17.40;100.00;99576.64;679590;1262;141765;-76
2023/07/28 23:11:29;;;;;;;13.90;10.50;;;;;;;17.01;100.00;99586.87;678611;1262;140062;-77
2023/07/28 23:26:32;;;;;;;15.30;11.30;;;;;;;16.84;100.00;99597.70;678385;1262;140670;-77
2023/07/28 23:41:36;;;;;;;15.20;12.30;;;;;;;16.56;100.00;99612.18;680478;1259;141232;-76
2023/07/28 23:56:40;;;;;;;17.60;10.50;;;;;;;16.46;100.00;99616.94;678487;1262;140221;-77
